sensor_id;sensor_type;location;lat;lon;timestamp;temperature;humidity
8527;DHT22;4301;48.362;8.478;2022-08-18T00:00:51;16.20;99.90
8527;DHT22;4301;48.362;8.478;2022-08-18T00:03:18;16.20;99.90
8527;DHT22;4301;48.362;8.478;2022-08-18T00:05:45;16.20;99.90
8527;DHT22;4301;48.362;8.478;2022-08-18T00:08:13;16.20;99.90
8527;DHT22;4301;48.362;8.478;2022-08-18T00:10:40;16.20;99.90
8527;DHT22;4301;48.362;8.478;2022-08-18T00:13:08;16.10;99.90
8527;DHT22;4301;48.362;8.478;2022-08-18T00:15:35;16.20;99.90
8527;DHT22;4301;48.362;8.478;2022-08-18T00:18:03;16.10;99.90
8527;DHT22;4301;48.362;8.478;2022-08-18T00:20:30;16.10;99.90
8527;DHT22;4301;48.362;8.478;2022-08-18T00:22:57;16.10;99.90
8527;DHT22;4301;48.362;8.478;2022-08-18T00:25:24;16.10;99.90
8527;DHT22;4301;48.362;8.478;2022-08-18T00:27:51;16.10;99.90
8527;DHT22;4301;48.362;8.478;2022-08-18T00:30:20;16.00;99.90
8527;DHT22;4301;48.362;8.478;2022-08-18T00:32:51;16.00;99.90
8527;DHT22;4301;48.362;8.478;2022-08-18T00:35:22;16.00;99.90
8527;DHT22;4301;48.362;8.478;2022-08-18T00:37:52;16.00;99.90
8527;DHT22;4301;48.362;8.478;2022-08-18T00:40:23;16.00;99.90
8527;DHT22;4301;48.362;8.478;2022-08-18T00:42:54;16.00;99.90
8527;DHT22;4301;48.362;8.478;2022-08-18T00:45:24;16.00;99.90
8527;DHT22;4301;48.362;8.478;2022-08-18T00:47:52;16.00;99.90
8527;DHT22;4301;48.362;8.478;2022-08-18T00:50:23;16.10;99.90
8527;DHT22;4301;48.362;8.478;2022-08-18T00:52:54;16.10;99.90
8527;DHT22;4301;48.362;8.478;2022-08-18T00:55:23;16.10;99.90
8527;DHT22;4301;48.362;8.478;2022-08-18T00:57:53;16.10;99.90
8527;DHT22;4301;48.362;8.478;2022-08-18T01:00:20;16.10;99.90
8527;DHT22;4301;48.362;8.478;2022-08-18T01:02:51;16.10;99.90
8527;DHT22;4301;48.362;8.478;2022-08-18T01:05:27;16.00;99.90
8527;DHT22;4301;48.362;8.478;2022-08-18T01:07:55;16.00;99.90
8527;DHT22;4301;48.362;8.478;2022-08-18T01:10:23;16.10;99.90
8527;DHT22;4301;48.362;8.478;2022-08-18T01:12:52;16.10;99.90
8527;DHT22;4301;48.362;8.478;2022-08-18T01:15:21;16.00;99.90
8527;DHT22;4301;48.362;8.478;2022-08-18T01:17:49;16.00;99.90
8527;DHT22;4301;48.362;8.478;2022-08-18T01:20:40;16.00;99.90
8527;DHT22;4301;48.362;8.478;2022-08-18T01:23:28;16.00;99.90
8527;DHT22;4301;48.362;8.478;2022-08-18T01:25:56;16.00;99.90
8527;DHT22;4301;48.362;8.478;2022-08-18T01:28:25;15.90;99.90
8527;DHT22;4301;48.362;8.478;2022-08-18T01:30:54;15.90;99.90
8527;DHT22;4301;48.362;8.478;2022-08-18T01:33:23;15.90;99.90
8527;DHT22;4301;48.362;8.478;2022-08-18T01:35:53;15.90;99.90
8527;DHT22;4301;48.362;8.478;2022-08-18T01:38:21;16.00;99.90
8527;DHT22;4301;48.362;8.478;2022-08-18T01:40:49;16.00;99.90
8527;DHT22;4301;48.362;8.478;2022-08-18T01:43:17;16.00;99.90
8527;DHT22;4301;48.362;8.478;2022-08-18T01:45:44;16.00;99.90
8527;DHT22;4301;48.362;8.478;2022-08-18T01:48:12;15.90;99.90
8527;DHT22;4301;48.362;8.478;2022-08-18T01:50:39;15.90;99.90
8527;DHT22;4301;48.362;8.478;2022-08-18T01:53:09;15.80;99.90
8527;DHT22;4301;48.362;8.478;2022-08-18T01:55:38;15.80;99.90
8527;DHT22;4301;48.362;8.478;2022-08-18T01:58:10;15.80;99.90
8527;DHT22;4301;48.362;8.478;2022-08-18T02:00:38;15.90;99.90
8527;DHT22;4301;48.362;8.478;2022-08-18T02:03:09;15.90;99.90
8527;DHT22;4301;48.362;8.478;2022-08-18T02:05:40;15.90;99.90
8527;DHT22;4301;48.362;8.478;2022-08-18T02:08:08;15.80;99.90
8527;DHT22;4301;48.362;8.478;2022-08-18T02:10:37;15.90;99.90
8527;DHT22;4301;48.362;8.478;2022-08-18T02:13:04;15.90;99.90
8527;DHT22;4301;48.362;8.478;2022-08-18T02:15:34;15.90;99.90
8527;DHT22;4301;48.362;8.478;2022-08-18T02:18:01;16.00;99.90
8527;DHT22;4301;48.362;8.478;2022-08-18T02:20:28;15.90;99.90
8527;DHT22;4301;48.362;8.478;2022-08-18T02:22:55;16.00;99.90
8527;DHT22;4301;48.362;8.478;2022-08-18T02:25:24;16.00;99.90
8527;DHT22;4301;48.362;8.478;2022-08-18T02:27:51;16.00;99.90
8527;DHT22;4301;48.362;8.478;2022-08-18T02:30:18;16.00;99.90
8527;DHT22;4301;48.362;8.478;2022-08-18T02:32:46;16.00;99.90
8527;DHT22;4301;48.362;8.478;2022-08-18T02:35:14;16.00;99.90
8527;DHT22;4301;48.362;8.478;2022-08-18T02:37:41;15.90;99.90
8527;DHT22;4301;48.362;8.478;2022-08-18T02:40:13;15.90;99.90
8527;DHT22;4301;48.362;8.478;2022-08-18T02:42:40;15.90;99.90
8527;DHT22;4301;48.362;8.478;2022-08-18T02:45:08;15.90;99.90
8527;DHT22;4301;48.362;8.478;2022-08-18T02:47:35;15.90;99.90
8527;DHT22;4301;48.362;8.478;2022-08-18T02:50:04;15.80;99.90
8527;DHT22;4301;48.362;8.478;2022-08-18T02:52:31;15.80;99.90
8527;DHT22;4301;48.362;8.478;2022-08-18T02:55:00;15.80;99.90
8527;DHT22;4301;48.362;8.478;2022-08-18T02:57:28;15.80;99.90
8527;DHT22;4301;48.362;8.478;2022-08-18T02:59:56;15.80;99.90
8527;DHT22;4301;48.362;8.478;2022-08-18T03:02:23;15.80;99.90
8527;DHT22;4301;48.362;8.478;2022-08-18T03:04:50;15.80;99.90
8527;DHT22;4301;48.362;8.478;2022-08-18T03:07:18;15.70;99.90
8527;DHT22;4301;48.362;8.478;2022-08-18T03:09:45;15.80;99.90
8527;DHT22;4301;48.362;8.478;2022-08-18T03:12:12;15.70;99.90
8527;DHT22;4301;48.362;8.478;2022-08-18T03:14:40;15.70;99.90
8527;DHT22;4301;48.362;8.478;2022-08-18T03:17:08;15.70;99.90
8527;DHT22;4301;48.362;8.478;2022-08-18T03:19:35;15.70;99.90
8527;DHT22;4301;48.362;8.478;2022-08-18T03:22:02;15.70;99.90
8527;DHT22;4301;48.362;8.478;2022-08-18T03:24:32;15.70;99.90
8527;DHT22;4301;48.362;8.478;2022-08-18T03:27:02;15.80;99.90
8527;DHT22;4301;48.362;8.478;2022-08-18T03:29:30;15.80;99.90
8527;DHT22;4301;48.362;8.478;2022-08-18T03:31:57;15.80;99.90
8527;DHT22;4301;48.362;8.478;2022-08-18T03:34:24;15.80;99.90
8527;DHT22;4301;48.362;8.478;2022-08-18T03:36:51;15.80;99.90
8527;DHT22;4301;48.362;8.478;2022-08-18T03:39:19;15.80;99.90
8527;DHT22;4301;48.362;8.478;2022-08-18T03:41:50;15.80;99.90
8527;DHT22;4301;48.362;8.478;2022-08-18T03:44:20;15.80;99.90
8527;DHT22;4301;48.362;8.478;2022-08-18T03:46:48;15.80;99.90
8527;DHT22;4301;48.362;8.478;2022-08-18T03:49:16;15.80;99.90
8527;DHT22;4301;48.362;8.478;2022-08-18T03:51:45;15.80;99.90
8527;DHT22;4301;48.362;8.478;2022-08-18T03:54:14;15.80;99.90
8527;DHT22;4301;48.362;8.478;2022-08-18T03:56:43;15.80;99.90
8527;DHT22;4301;48.362;8.478;2022-08-18T03:59:14;15.80;99.90
8527;DHT22;4301;48.362;8.478;2022-08-18T04:01:43;15.70;99.90
8527;DHT22;4301;48.362;8.478;2022-08-18T04:04:13;15.80;99.90
8527;DHT22;4301;48.362;8.478;2022-08-18T04:06:43;15.80;99.90
8527;DHT22;4301;48.362;8.478;2022-08-18T04:09:13;15.80;99.90
8527;DHT22;4301;48.362;8.478;2022-08-18T04:11:41;15.80;99.90
8527;DHT22;4301;48.362;8.478;2022-08-18T04:14:09;15.80;99.90
8527;DHT22;4301;48.362;8.478;2022-08-18T04:16:38;15.80;99.90
8527;DHT22;4301;48.362;8.478;2022-08-18T04:19:05;15.80;99.90
8527;DHT22;4301;48.362;8.478;2022-08-18T04:21:35;15.80;99.90
8527;DHT22;4301;48.362;8.478;2022-08-18T04:24:04;15.80;99.90
8527;DHT22;4301;48.362;8.478;2022-08-18T04:26:35;15.80;99.90
8527;DHT22;4301;48.362;8.478;2022-08-18T04:29:02;15.80;99.90
8527;DHT22;4301;48.362;8.478;2022-08-18T04:31:30;15.80;99.90
8527;DHT22;4301;48.362;8.478;2022-08-18T04:34:00;15.80;99.90
8527;DHT22;4301;48.362;8.478;2022-08-18T04:36:29;15.80;99.90
8527;DHT22;4301;48.362;8.478;2022-08-18T04:38:57;15.80;99.90
8527;DHT22;4301;48.362;8.478;2022-08-18T04:41:25;15.80;99.90
8527;DHT22;4301;48.362;8.478;2022-08-18T04:43:53;15.80;99.90
8527;DHT22;4301;48.362;8.478;2022-08-18T04:46:20;15.90;99.90
8527;DHT22;4301;48.362;8.478;2022-08-18T04:48:47;16.00;99.90
8527;DHT22;4301;48.362;8.478;2022-08-18T04:51:18;16.00;99.90
8527;DHT22;4301;48.362;8.478;2022-08-18T04:53:45;16.00;99.90
8527;DHT22;4301;48.362;8.478;2022-08-18T04:56:18;16.00;99.90
8527;DHT22;4301;48.362;8.478;2022-08-18T04:58:51;16.00;99.90
8527;DHT22;4301;48.362;8.478;2022-08-18T05:01:20;16.00;99.90
8527;DHT22;4301;48.362;8.478;2022-08-18T05:03:47;16.00;99.90
8527;DHT22;4301;48.362;8.478;2022-08-18T05:06:17;16.00;99.90
8527;DHT22;4301;48.362;8.478;2022-08-18T05:08:45;16.00;99.90
8527;DHT22;4301;48.362;8.478;2022-08-18T05:11:13;16.00;99.90
8527;DHT22;4301;48.362;8.478;2022-08-18T05:13:40;16.10;99.90
8527;DHT22;4301;48.362;8.478;2022-08-18T05:16:07;16.10;99.90
8527;DHT22;4301;48.362;8.478;2022-08-18T05:18:35;16.20;99.90
8527;DHT22;4301;48.362;8.478;2022-08-18T05:21:04;16.20;99.90
8527;DHT22;4301;48.362;8.478;2022-08-18T05:23:32;16.30;99.90
8527;DHT22;4301;48.362;8.478;2022-08-18T05:26:02;16.30;99.90
8527;DHT22;4301;48.362;8.478;2022-08-18T05:28:30;16.20;99.90
8527;DHT22;4301;48.362;8.478;2022-08-18T05:30:58;16.20;99.90
8527;DHT22;4301;48.362;8.478;2022-08-18T05:33:31;16.20;99.90
8527;DHT22;4301;48.362;8.478;2022-08-18T05:36:01;16.20;99.90
8527;DHT22;4301;48.362;8.478;2022-08-18T05:38:38;16.30;99.90
8527;DHT22;4301;48.362;8.478;2022-08-18T05:41:09;16.30;99.90
8527;DHT22;4301;48.362;8.478;2022-08-18T05:43:38;16.40;99.90
8527;DHT22;4301;48.362;8.478;2022-08-18T05:46:08;16.40;99.90
8527;DHT22;4301;48.362;8.478;2022-08-18T05:48:35;16.40;99.90
8527;DHT22;4301;48.362;8.478;2022-08-18T05:51:14;16.40;99.90
8527;DHT22;4301;48.362;8.478;2022-08-18T05:53:43;16.30;99.90
8527;DHT22;4301;48.362;8.478;2022-08-18T05:56:31;16.40;99.90
8527;DHT22;4301;48.362;8.478;2022-08-18T05:59:15;16.40;99.90
8527;DHT22;4301;48.362;8.478;2022-08-18T06:01:47;16.40;99.90
8527;DHT22;4301;48.362;8.478;2022-08-18T06:04:26;16.40;99.90
8527;DHT22;4301;48.362;8.478;2022-08-18T06:06:55;16.50;99.90
8527;DHT22;4301;48.362;8.478;2022-08-18T06:09:28;16.50;99.90
8527;DHT22;4301;48.362;8.478;2022-08-18T06:12:03;16.60;99.90
8527;DHT22;4301;48.362;8.478;2022-08-18T06:14:36;16.60;99.90
8527;DHT22;4301;48.362;8.478;2022-08-18T06:17:10;16.70;99.90
8527;DHT22;4301;48.362;8.478;2022-08-18T06:19:47;16.70;99.90
8527;DHT22;4301;48.362;8.478;2022-08-18T06:22:26;16.80;99.90
8527;DHT22;4301;48.362;8.478;2022-08-18T06:25:02;16.70;99.90
8527;DHT22;4301;48.362;8.478;2022-08-18T06:27:39;16.70;99.90
8527;DHT22;4301;48.362;8.478;2022-08-18T06:30:16;16.80;99.90
8527;DHT22;4301;48.362;8.478;2022-08-18T06:33:01;16.80;99.90
8527;DHT22;4301;48.362;8.478;2022-08-18T06:35:34;16.70;99.90
8527;DHT22;4301;48.362;8.478;2022-08-18T06:38:10;16.70;99.90
8527;DHT22;4301;48.362;8.478;2022-08-18T06:41:10;16.70;99.90
8527;DHT22;4301;48.362;8.478;2022-08-18T06:43:40;16.60;99.90
8527;DHT22;4301;48.362;8.478;2022-08-18T06:46:20;16.70;99.90
8527;DHT22;4301;48.362;8.478;2022-08-18T06:48:53;16.70;99.90
8527;DHT22;4301;48.362;8.478;2022-08-18T06:51:22;16.70;99.90
8527;DHT22;4301;48.362;8.478;2022-08-18T06:53:55;16.70;99.90
8527;DHT22;4301;48.362;8.478;2022-08-18T06:56:31;16.80;99.90
8527;DHT22;4301;48.362;8.478;2022-08-18T06:59:15;16.80;99.90
8527;DHT22;4301;48.362;8.478;2022-08-18T07:01:44;16.90;99.90
8527;DHT22;4301;48.362;8.478;2022-08-18T07:04:32;17.00;99.90
8527;DHT22;4301;48.362;8.478;2022-08-18T07:07:16;17.10;99.90
8527;DHT22;4301;48.362;8.478;2022-08-18T07:09:44;17.10;99.90
8527;DHT22;4301;48.362;8.478;2022-08-18T07:12:20;17.10;99.90
8527;DHT22;4301;48.362;8.478;2022-08-18T07:14:50;17.10;99.90
8527;DHT22;4301;48.362;8.478;2022-08-18T07:17:24;17.30;99.90
8527;DHT22;4301;48.362;8.478;2022-08-18T07:19:57;17.30;99.90
8527;DHT22;4301;48.362;8.478;2022-08-18T07:22:25;17.40;99.90
8527;DHT22;4301;48.362;8.478;2022-08-18T07:24:53;17.50;99.90
8527;DHT22;4301;48.362;8.478;2022-08-18T07:27:40;17.50;99.90
8527;DHT22;4301;48.362;8.478;2022-08-18T07:30:10;17.60;99.90
8527;DHT22;4301;48.362;8.478;2022-08-18T07:32:42;17.60;99.90
8527;DHT22;4301;48.362;8.478;2022-08-18T07:35:12;17.60;99.90
8527;DHT22;4301;48.362;8.478;2022-08-18T07:37:45;17.50;99.90
8527;DHT22;4301;48.362;8.478;2022-08-18T07:40:22;17.70;99.90
8527;DHT22;4301;48.362;8.478;2022-08-18T07:42:57;17.90;99.90
8527;DHT22;4301;48.362;8.478;2022-08-18T07:45:28;18.20;99.90
8527;DHT22;4301;48.362;8.478;2022-08-18T07:48:03;18.30;99.90
8527;DHT22;4301;48.362;8.478;2022-08-18T07:50:33;18.40;99.90
8527;DHT22;4301;48.362;8.478;2022-08-18T07:53:13;18.60;99.90
8527;DHT22;4301;48.362;8.478;2022-08-18T07:55:47;18.80;99.90
8527;DHT22;4301;48.362;8.478;2022-08-18T07:58:23;18.90;99.90
8527;DHT22;4301;48.362;8.478;2022-08-18T08:01:00;19.00;99.90
8527;DHT22;4301;48.362;8.478;2022-08-18T08:03:36;19.30;99.90
8527;DHT22;4301;48.362;8.478;2022-08-18T08:06:13;19.40;99.90
8527;DHT22;4301;48.362;8.478;2022-08-18T08:08:52;19.50;99.90
8527;DHT22;4301;48.362;8.478;2022-08-18T08:11:31;19.50;99.90
8527;DHT22;4301;48.362;8.478;2022-08-18T08:14:13;19.60;99.90
8527;DHT22;4301;48.362;8.478;2022-08-18T08:16:48;19.90;99.90
8527;DHT22;4301;48.362;8.478;2022-08-18T08:19:40;20.10;99.90
8527;DHT22;4301;48.362;8.478;2022-08-18T08:22:17;20.60;99.90
8527;DHT22;4301;48.362;8.478;2022-08-18T08:24:50;20.90;99.90
8527;DHT22;4301;48.362;8.478;2022-08-18T08:27:23;21.00;99.90
8527;DHT22;4301;48.362;8.478;2022-08-18T08:30:03;21.20;99.90
8527;DHT22;4301;48.362;8.478;2022-08-18T08:32:33;21.20;99.90
8527;DHT22;4301;48.362;8.478;2022-08-18T08:35:05;21.30;99.90
8527;DHT22;4301;48.362;8.478;2022-08-18T08:37:40;21.30;99.90
8527;DHT22;4301;48.362;8.478;2022-08-18T08:40:14;21.80;99.90
8527;DHT22;4301;48.362;8.478;2022-08-18T08:42:48;22.00;99.90
8527;DHT22;4301;48.362;8.478;2022-08-18T08:45:22;22.30;99.90
8527;DHT22;4301;48.362;8.478;2022-08-18T08:47:57;22.00;99.90
8527;DHT22;4301;48.362;8.478;2022-08-18T08:50:29;21.70;99.90
8527;DHT22;4301;48.362;8.478;2022-08-18T08:53:00;21.70;99.90
8527;DHT22;4301;48.362;8.478;2022-08-18T08:55:31;21.80;99.90
8527;DHT22;4301;48.362;8.478;2022-08-18T08:58:08;22.10;99.90
8527;DHT22;4301;48.362;8.478;2022-08-18T09:00:42;22.40;99.90
8527;DHT22;4301;48.362;8.478;2022-08-18T09:03:22;22.80;99.90
8527;DHT22;4301;48.362;8.478;2022-08-18T09:05:56;22.70;99.90
8527;DHT22;4301;48.362;8.478;2022-08-18T09:08:46;22.90;99.90
8527;DHT22;4301;48.362;8.478;2022-08-18T09:11:49;23.70;99.90
8527;DHT22;4301;48.362;8.478;2022-08-18T09:14:44;24.30;99.90
8527;DHT22;4301;48.362;8.478;2022-08-18T09:17:36;24.70;99.90
8527;DHT22;4301;48.362;8.478;2022-08-18T09:20:31;24.90;99.90
8527;DHT22;4301;48.362;8.478;2022-08-18T09:23:05;25.20;99.90
8527;DHT22;4301;48.362;8.478;2022-08-18T09:25:45;25.70;99.90
8527;DHT22;4301;48.362;8.478;2022-08-18T09:28:15;25.90;99.90
8527;DHT22;4301;48.362;8.478;2022-08-18T09:30:47;25.50;99.90
8527;DHT22;4301;48.362;8.478;2022-08-18T09:33:27;25.20;99.90
8527;DHT22;4301;48.362;8.478;2022-08-18T09:36:22;25.20;99.90
8527;DHT22;4301;48.362;8.478;2022-08-18T09:38:57;24.80;99.90
8527;DHT22;4301;48.362;8.478;2022-08-18T09:41:48;24.60;99.90
8527;DHT22;4301;48.362;8.478;2022-08-18T09:50:55;24.40;99.90
8527;DHT22;4301;48.362;8.478;2022-08-18T09:53:54;25.30;99.90
8527;DHT22;4301;48.362;8.478;2022-08-18T09:59:58;25.80;99.90
8527;DHT22;4301;48.362;8.478;2022-08-18T10:03:21;26.00;99.90
8527;DHT22;4301;48.362;8.478;2022-08-18T10:06:04;25.90;99.90
8527;DHT22;4301;48.362;8.478;2022-08-18T10:08:54;26.70;99.90
8527;DHT22;4301;48.362;8.478;2022-08-18T10:11:43;26.90;99.90
8527;DHT22;4301;48.362;8.478;2022-08-18T10:14:32;27.60;99.90
8527;DHT22;4301;48.362;8.478;2022-08-18T10:17:11;27.90;99.90
8527;DHT22;4301;48.362;8.478;2022-08-18T10:19:50;29.00;99.90
8527;DHT22;4301;48.362;8.478;2022-08-18T10:22:39;29.60;99.90
8527;DHT22;4301;48.362;8.478;2022-08-18T10:25:08;29.00;99.90
8527;DHT22;4301;48.362;8.478;2022-08-18T10:27:48;28.40;99.90
8527;DHT22;4301;48.362;8.478;2022-08-18T10:30:58;28.40;99.90
8527;DHT22;4301;48.362;8.478;2022-08-18T10:36:44;27.80;99.90
8527;DHT22;4301;48.362;8.478;2022-08-18T10:39:15;27.70;99.90
8527;DHT22;4301;48.362;8.478;2022-08-18T10:41:55;27.90;99.90
8527;DHT22;4301;48.362;8.478;2022-08-18T10:44:23;27.40;99.90
8527;DHT22;4301;48.362;8.478;2022-08-18T10:46:51;26.70;99.90
8527;DHT22;4301;48.362;8.478;2022-08-18T10:49:22;25.70;99.90
8527;DHT22;4301;48.362;8.478;2022-08-18T10:52:16;25.50;99.90
8527;DHT22;4301;48.362;8.478;2022-08-18T10:57:59;24.90;99.90
8527;DHT22;4301;48.362;8.478;2022-08-18T11:00:42;24.70;99.90
8527;DHT22;4301;48.362;8.478;2022-08-18T11:03:16;24.60;99.90
8527;DHT22;4301;48.362;8.478;2022-08-18T11:06:00;24.10;99.90
8527;DHT22;4301;48.362;8.478;2022-08-18T11:08:28;23.80;99.90
8527;DHT22;4301;48.362;8.478;2022-08-18T11:11:06;23.80;99.90
8527;DHT22;4301;48.362;8.478;2022-08-18T11:13:51;23.80;99.90
8527;DHT22;4301;48.362;8.478;2022-08-18T11:16:31;24.10;99.90
8527;DHT22;4301;48.362;8.478;2022-08-18T11:19:07;24.20;99.90
8527;DHT22;4301;48.362;8.478;2022-08-18T11:21:39;24.80;99.90
8527;DHT22;4301;48.362;8.478;2022-08-18T11:24:10;25.30;99.90
8527;DHT22;4301;48.362;8.478;2022-08-18T11:26:41;26.50;99.90
8527;DHT22;4301;48.362;8.478;2022-08-18T11:29:22;27.30;99.90
8527;DHT22;4301;48.362;8.478;2022-08-18T11:31:52;27.30;99.90
8527;DHT22;4301;48.362;8.478;2022-08-18T11:34:25;27.30;99.90
8527;DHT22;4301;48.362;8.478;2022-08-18T11:36:56;26.80;99.90
8527;DHT22;4301;48.362;8.478;2022-08-18T11:39:24;26.90;99.90
8527;DHT22;4301;48.362;8.478;2022-08-18T11:41:53;26.80;99.90
8527;DHT22;4301;48.362;8.478;2022-08-18T11:44:23;26.60;99.90
8527;DHT22;4301;48.362;8.478;2022-08-18T11:46:54;26.00;99.90
8527;DHT22;4301;48.362;8.478;2022-08-18T11:49:29;25.70;99.90
8527;DHT22;4301;48.362;8.478;2022-08-18T11:52:00;25.40;99.90
8527;DHT22;4301;48.362;8.478;2022-08-18T11:54:38;25.30;99.90
8527;DHT22;4301;48.362;8.478;2022-08-18T12:00:40;24.80;99.90
8527;DHT22;4301;48.362;8.478;2022-08-18T12:03:15;24.80;99.90
8527;DHT22;4301;48.362;8.478;2022-08-18T12:05:47;24.70;99.90
8527;DHT22;4301;48.362;8.478;2022-08-18T12:08:29;24.50;99.90
8527;DHT22;4301;48.362;8.478;2022-08-18T12:11:04;24.40;99.90
8527;DHT22;4301;48.362;8.478;2022-08-18T12:13:32;24.40;99.90
8527;DHT22;4301;48.362;8.478;2022-08-18T12:16:13;24.10;99.90
8527;DHT22;4301;48.362;8.478;2022-08-18T12:18:40;23.80;99.90
8527;DHT22;4301;48.362;8.478;2022-08-18T12:21:08;24.00;99.90
8527;DHT22;4301;48.362;8.478;2022-08-18T12:23:38;24.10;99.90
8527;DHT22;4301;48.362;8.478;2022-08-18T12:26:06;24.30;99.90
8527;DHT22;4301;48.362;8.478;2022-08-18T12:28:33;24.70;99.90
8527;DHT22;4301;48.362;8.478;2022-08-18T12:31:00;24.80;99.90
8527;DHT22;4301;48.362;8.478;2022-08-18T12:33:29;24.90;99.90
8527;DHT22;4301;48.362;8.478;2022-08-18T12:35:56;25.00;99.90
8527;DHT22;4301;48.362;8.478;2022-08-18T12:38:23;25.10;99.90
8527;DHT22;4301;48.362;8.478;2022-08-18T12:40:50;25.00;99.90
8527;DHT22;4301;48.362;8.478;2022-08-18T12:43:18;25.20;99.90
8527;DHT22;4301;48.362;8.478;2022-08-18T12:45:45;25.10;99.90
8527;DHT22;4301;48.362;8.478;2022-08-18T12:48:12;25.10;99.90
8527;DHT22;4301;48.362;8.478;2022-08-18T12:50:41;24.90;99.90
8527;DHT22;4301;48.362;8.478;2022-08-18T12:53:08;24.80;99.90
8527;DHT22;4301;48.362;8.478;2022-08-18T12:55:39;24.70;99.90
8527;DHT22;4301;48.362;8.478;2022-08-18T12:58:06;24.80;99.90
8527;DHT22;4301;48.362;8.478;2022-08-18T13:00:34;24.60;99.90
8527;DHT22;4301;48.362;8.478;2022-08-18T13:03:01;24.70;99.90
8527;DHT22;4301;48.362;8.478;2022-08-18T13:05:28;24.70;99.90
8527;DHT22;4301;48.362;8.478;2022-08-18T13:07:57;24.20;99.90
8527;DHT22;4301;48.362;8.478;2022-08-18T13:10:26;23.80;99.90
8527;DHT22;4301;48.362;8.478;2022-08-18T13:12:53;23.70;99.90
8527;DHT22;4301;48.362;8.478;2022-08-18T13:15:20;23.40;99.90
8527;DHT22;4301;48.362;8.478;2022-08-18T13:17:49;23.40;99.90
8527;DHT22;4301;48.362;8.478;2022-08-18T13:20:16;23.30;99.90
8527;DHT22;4301;48.362;8.478;2022-08-18T13:22:43;23.30;99.90
8527;DHT22;4301;48.362;8.478;2022-08-18T13:25:14;23.30;99.90
8527;DHT22;4301;48.362;8.478;2022-08-18T13:27:43;23.20;99.90
8527;DHT22;4301;48.362;8.478;2022-08-18T13:30:13;23.10;99.90
8527;DHT22;4301;48.362;8.478;2022-08-18T13:32:41;23.10;99.90
8527;DHT22;4301;48.362;8.478;2022-08-18T13:35:09;23.20;99.90
8527;DHT22;4301;48.362;8.478;2022-08-18T13:37:37;23.20;99.90
8527;DHT22;4301;48.362;8.478;2022-08-18T13:40:06;23.00;99.90
8527;DHT22;4301;48.362;8.478;2022-08-18T13:42:43;23.10;99.90
8527;DHT22;4301;48.362;8.478;2022-08-18T13:45:16;23.20;99.90
8527;DHT22;4301;48.362;8.478;2022-08-18T13:47:43;23.10;99.90
8527;DHT22;4301;48.362;8.478;2022-08-18T13:50:11;23.30;99.90
8527;DHT22;4301;48.362;8.478;2022-08-18T13:52:39;23.40;99.90
8527;DHT22;4301;48.362;8.478;2022-08-18T13:55:11;23.50;99.90
8527;DHT22;4301;48.362;8.478;2022-08-18T13:57:41;23.50;99.90
8527;DHT22;4301;48.362;8.478;2022-08-18T14:00:14;23.60;99.90
8527;DHT22;4301;48.362;8.478;2022-08-18T14:02:42;23.80;99.90
8527;DHT22;4301;48.362;8.478;2022-08-18T14:05:09;24.00;99.90
8527;DHT22;4301;48.362;8.478;2022-08-18T14:07:36;23.90;99.90
8527;DHT22;4301;48.362;8.478;2022-08-18T14:10:04;24.00;99.90
8527;DHT22;4301;48.362;8.478;2022-08-18T14:12:34;24.00;99.90
8527;DHT22;4301;48.362;8.478;2022-08-18T14:15:05;23.80;99.90
8527;DHT22;4301;48.362;8.478;2022-08-18T14:17:33;23.80;99.90
8527;DHT22;4301;48.362;8.478;2022-08-18T14:20:02;23.90;99.90
8527;DHT22;4301;48.362;8.478;2022-08-18T14:22:46;23.80;99.90
8527;DHT22;4301;48.362;8.478;2022-08-18T14:25:31;24.00;99.90
8527;DHT22;4301;48.362;8.478;2022-08-18T14:28:15;24.10;99.90
8527;DHT22;4301;48.362;8.478;2022-08-18T14:30:45;24.20;99.90
8527;DHT22;4301;48.362;8.478;2022-08-18T14:33:12;24.20;99.90
8527;DHT22;4301;48.362;8.478;2022-08-18T14:35:42;24.10;99.90
8527;DHT22;4301;48.362;8.478;2022-08-18T14:38:25;24.00;99.90
8527;DHT22;4301;48.362;8.478;2022-08-18T14:40:52;23.90;99.90
8527;DHT22;4301;48.362;8.478;2022-08-18T14:43:19;23.80;99.90
8527;DHT22;4301;48.362;8.478;2022-08-18T14:45:48;23.70;99.90
8527;DHT22;4301;48.362;8.478;2022-08-18T14:48:16;23.50;99.90
8527;DHT22;4301;48.362;8.478;2022-08-18T14:50:47;23.30;99.90
8527;DHT22;4301;48.362;8.478;2022-08-18T14:53:15;22.90;99.90
8527;DHT22;4301;48.362;8.478;2022-08-18T14:55:44;22.60;99.90
8527;DHT22;4301;48.362;8.478;2022-08-18T14:58:12;22.40;99.90
8527;DHT22;4301;48.362;8.478;2022-08-18T15:00:41;22.10;99.90
8527;DHT22;4301;48.362;8.478;2022-08-18T15:03:09;21.70;99.90
8527;DHT22;4301;48.362;8.478;2022-08-18T15:05:36;21.40;99.90
8527;DHT22;4301;48.362;8.478;2022-08-18T15:08:04;21.40;99.90
8527;DHT22;4301;48.362;8.478;2022-08-18T15:10:31;21.30;99.90
8527;DHT22;4301;48.362;8.478;2022-08-18T15:12:59;21.10;99.90
8527;DHT22;4301;48.362;8.478;2022-08-18T15:15:27;21.00;99.90
8527;DHT22;4301;48.362;8.478;2022-08-18T15:17:54;21.10;99.90
8527;DHT22;4301;48.362;8.478;2022-08-18T15:20:25;21.10;99.90
8527;DHT22;4301;48.362;8.478;2022-08-18T15:22:53;21.10;99.90
8527;DHT22;4301;48.362;8.478;2022-08-18T15:25:37;21.00;99.90
8527;DHT22;4301;48.362;8.478;2022-08-18T15:28:10;21.00;99.90
8527;DHT22;4301;48.362;8.478;2022-08-18T15:30:37;20.90;99.90
8527;DHT22;4301;48.362;8.478;2022-08-18T15:33:05;20.90;99.90
8527;DHT22;4301;48.362;8.478;2022-08-18T15:35:33;20.90;99.90
8527;DHT22;4301;48.362;8.478;2022-08-18T15:38:00;20.90;99.90
8527;DHT22;4301;48.362;8.478;2022-08-18T15:40:27;20.80;99.90
8527;DHT22;4301;48.362;8.478;2022-08-18T15:42:57;20.70;99.90
8527;DHT22;4301;48.362;8.478;2022-08-18T15:45:30;20.60;99.90
8527;DHT22;4301;48.362;8.478;2022-08-18T15:47:58;20.40;99.90
8527;DHT22;4301;48.362;8.478;2022-08-18T15:50:25;20.30;99.90
8527;DHT22;4301;48.362;8.478;2022-08-18T15:52:56;20.20;99.90
8527;DHT22;4301;48.362;8.478;2022-08-18T15:55:26;20.10;99.90
8527;DHT22;4301;48.362;8.478;2022-08-18T15:57:54;20.20;99.90
8527;DHT22;4301;48.362;8.478;2022-08-18T16:00:22;20.10;99.90
8527;DHT22;4301;48.362;8.478;2022-08-18T16:02:52;20.00;99.90
8527;DHT22;4301;48.362;8.478;2022-08-18T16:05:22;19.90;99.90
8527;DHT22;4301;48.362;8.478;2022-08-18T16:07:51;19.80;99.90
8527;DHT22;4301;48.362;8.478;2022-08-18T16:10:23;19.80;99.90
8527;DHT22;4301;48.362;8.478;2022-08-18T16:12:51;19.80;99.90
8527;DHT22;4301;48.362;8.478;2022-08-18T16:15:20;19.80;99.90
8527;DHT22;4301;48.362;8.478;2022-08-18T16:17:48;19.70;99.90
8527;DHT22;4301;48.362;8.478;2022-08-18T16:20:16;19.70;99.90
8527;DHT22;4301;48.362;8.478;2022-08-18T16:22:44;19.60;99.90
8527;DHT22;4301;48.362;8.478;2022-08-18T16:25:11;19.60;99.90
8527;DHT22;4301;48.362;8.478;2022-08-18T16:27:40;19.50;99.90
8527;DHT22;4301;48.362;8.478;2022-08-18T16:30:08;19.40;99.90
8527;DHT22;4301;48.362;8.478;2022-08-18T16:32:36;19.40;99.90
8527;DHT22;4301;48.362;8.478;2022-08-18T16:35:04;19.30;99.90
8527;DHT22;4301;48.362;8.478;2022-08-18T16:37:31;19.30;99.90
8527;DHT22;4301;48.362;8.478;2022-08-18T16:39:58;19.30;99.90
8527;DHT22;4301;48.362;8.478;2022-08-18T16:42:25;19.40;99.90
8527;DHT22;4301;48.362;8.478;2022-08-18T16:44:58;19.40;99.90
8527;DHT22;4301;48.362;8.478;2022-08-18T16:47:25;19.40;99.90
8527;DHT22;4301;48.362;8.478;2022-08-18T16:49:53;19.40;99.90
8527;DHT22;4301;48.362;8.478;2022-08-18T16:52:20;19.40;99.90